sensor_id;sensor_type;location;lat;lon;timestamp;P1;durP1;ratioP1;P2;durP2;ratioP2
727;SDS011;347;48.780;9.158;2022-09-19T00:01:54;10.47;;;10.17;;
727;SDS011;347;48.780;9.158;2022-09-19T00:04:22;9.90;;;9.60;;
727;SDS011;347;48.780;9.158;2022-09-19T00:06:53;9.80;;;9.50;;
727;SDS011;347;48.780;9.158;2022-09-19T00:09:20;10.57;;;10.27;;
727;SDS011;347;48.780;9.158;2022-09-19T00:11:48;10.10;;;9.80;;
727;SDS011;347;48.780;9.158;2022-09-19T00:14:16;10.00;;;9.70;;
727;SDS011;347;48.780;9.158;2022-09-19T00:16:45;9.63;;;9.37;;
727;SDS011;347;48.780;9.158;2022-09-19T00:19:13;10.33;;;10.03;;
727;SDS011;347;48.780;9.158;2022-09-19T00:21:43;10.23;;;9.93;;
727;SDS011;347;48.780;9.158;2022-09-19T00:24:11;10.00;;;9.70;;
727;SDS011;347;48.780;9.158;2022-09-19T00:26:57;10.13;;;9.83;;
727;SDS011;347;48.780;9.158;2022-09-19T00:29:23;10.03;;;9.63;;
727;SDS011;347;48.780;9.158;2022-09-19T00:31:49;10.10;;;9.80;;
727;SDS011;347;48.780;9.158;2022-09-19T00:34:16;10.53;;;10.23;;
727;SDS011;347;48.780;9.158;2022-09-19T00:36:43;10.60;;;10.30;;
727;SDS011;347;48.780;9.158;2022-09-19T00:39:10;10.57;;;10.27;;
727;SDS011;347;48.780;9.158;2022-09-19T00:41:38;11.03;;;10.73;;
727;SDS011;347;48.780;9.158;2022-09-19T00:47:11;10.10;;;9.80;;
727;SDS011;347;48.780;9.158;2022-09-19T00:49:40;10.60;;;10.30;;
727;SDS011;347;48.780;9.158;2022-09-19T00:52:14;10.70;;;10.40;;
727;SDS011;347;48.780;9.158;2022-09-19T00:54:44;10.20;;;9.90;;
727;SDS011;347;48.780;9.158;2022-09-19T00:57:12;10.10;;;9.80;;
727;SDS011;347;48.780;9.158;2022-09-19T00:59:41;11.17;;;10.87;;
727;SDS011;347;48.780;9.158;2022-09-19T01:02:10;9.60;;;9.40;;
727;SDS011;347;48.780;9.158;2022-09-19T01:04:37;9.73;;;9.43;;
727;SDS011;347;48.780;9.158;2022-09-19T01:09:53;10.83;;;10.53;;
727;SDS011;347;48.780;9.158;2022-09-19T01:15:07;10.07;;;9.83;;
727;SDS011;347;48.780;9.158;2022-09-19T01:17:55;10.33;;;9.93;;
727;SDS011;347;48.780;9.158;2022-09-19T01:28:36;10.90;;;10.57;;
727;SDS011;347;48.780;9.158;2022-09-19T01:31:20;11.17;;;10.87;;
727;SDS011;347;48.780;9.158;2022-09-19T01:36:45;10.20;;;9.90;;
727;SDS011;347;48.780;9.158;2022-09-19T01:39:23;10.57;;;10.27;;
727;SDS011;347;48.780;9.158;2022-09-19T01:41:54;10.53;;;10.23;;
727;SDS011;347;48.780;9.158;2022-09-19T01:44:21;10.80;;;10.33;;
727;SDS011;347;48.780;9.158;2022-09-19T01:52:39;10.23;;;9.93;;
727;SDS011;347;48.780;9.158;2022-09-19T02:00:37;10.97;;;10.57;;
727;SDS011;347;48.780;9.158;2022-09-19T02:03:16;11.00;;;10.70;;
727;SDS011;347;48.780;9.158;2022-09-19T02:06:07;10.80;;;10.50;;
727;SDS011;347;48.780;9.158;2022-09-19T02:11:40;10.63;;;10.33;;
727;SDS011;347;48.780;9.158;2022-09-19T02:14:09;10.60;;;10.30;;
727;SDS011;347;48.780;9.158;2022-09-19T02:17:24;11.07;;;10.77;;
727;SDS011;347;48.780;9.158;2022-09-19T02:19:40;10.97;;;10.57;;
727;SDS011;347;48.780;9.158;2022-09-19T02:22:24;11.40;;;11.10;;
727;SDS011;347;48.780;9.158;2022-09-19T02:25:04;11.53;;;10.80;;
727;SDS011;347;48.780;9.158;2022-09-19T02:27:35;10.90;;;10.60;;
727;SDS011;347;48.780;9.158;2022-09-19T02:30:08;11.40;;;11.00;;
727;SDS011;347;48.780;9.158;2022-09-19T02:32:35;11.47;;;11.17;;
727;SDS011;347;48.780;9.158;2022-09-19T02:35:02;11.40;;;11.00;;
727;SDS011;347;48.780;9.158;2022-09-19T02:37:34;11.07;;;10.77;;
727;SDS011;347;48.780;9.158;2022-09-19T02:45:48;11.07;;;10.57;;
727;SDS011;347;48.780;9.158;2022-09-19T02:50:57;11.73;;;11.10;;
727;SDS011;347;48.780;9.158;2022-09-19T02:53:25;11.60;;;11.20;;
727;SDS011;347;48.780;9.158;2022-09-19T02:55:55;11.70;;;11.30;;
727;SDS011;347;48.780;9.158;2022-09-19T02:58:26;11.97;;;11.57;;
727;SDS011;347;48.780;9.158;2022-09-19T03:00:59;11.80;;;11.30;;
727;SDS011;347;48.780;9.158;2022-09-19T03:03:34;11.67;;;11.17;;
727;SDS011;347;48.780;9.158;2022-09-19T03:06:24;11.40;;;11.00;;
727;SDS011;347;48.780;9.158;2022-09-19T03:08:58;12.07;;;11.53;;
727;SDS011;347;48.780;9.158;2022-09-19T03:11:26;12.40;;;12.00;;
727;SDS011;347;48.780;9.158;2022-09-19T03:13:56;11.67;;;11.27;;
727;SDS011;347;48.780;9.158;2022-09-19T03:16:26;11.73;;;11.33;;
727;SDS011;347;48.780;9.158;2022-09-19T03:19:09;11.60;;;11.20;;
727;SDS011;347;48.780;9.158;2022-09-19T03:21:36;12.03;;;11.50;;
727;SDS011;347;48.780;9.158;2022-09-19T03:24:04;11.47;;;11.00;;
727;SDS011;347;48.780;9.158;2022-09-19T03:26:31;11.17;;;10.80;;
727;SDS011;347;48.780;9.158;2022-09-19T03:28:59;12.10;;;11.60;;
727;SDS011;347;48.780;9.158;2022-09-19T03:31:27;12.60;;;11.93;;
727;SDS011;347;48.780;9.158;2022-09-19T03:33:54;12.60;;;11.90;;
727;SDS011;347;48.780;9.158;2022-09-19T03:36:26;12.80;;;12.20;;
727;SDS011;347;48.780;9.158;2022-09-19T03:38:54;11.50;;;11.10;;
727;SDS011;347;48.780;9.158;2022-09-19T03:41:21;12.43;;;11.30;;
727;SDS011;347;48.780;9.158;2022-09-19T03:43:47;13.03;;;12.40;;
727;SDS011;347;48.780;9.158;2022-09-19T03:46:15;12.20;;;11.47;;
727;SDS011;347;48.780;9.158;2022-09-19T03:48:43;11.43;;;11.03;;
727;SDS011;347;48.780;9.158;2022-09-19T03:51:13;12.03;;;11.53;;
727;SDS011;347;48.780;9.158;2022-09-19T03:53:40;12.13;;;11.63;;
727;SDS011;347;48.780;9.158;2022-09-19T03:56:12;12.37;;;11.70;;
727;SDS011;347;48.780;9.158;2022-09-19T03:58:38;13.63;;;12.90;;
727;SDS011;347;48.780;9.158;2022-09-19T04:01:05;11.90;;;11.40;;
727;SDS011;347;48.780;9.158;2022-09-19T04:03:32;11.77;;;11.27;;
727;SDS011;347;48.780;9.158;2022-09-19T04:06:02;12.47;;;12.00;;
727;SDS011;347;48.780;9.158;2022-09-19T04:08:29;12.37;;;11.67;;
727;SDS011;347;48.780;9.158;2022-09-19T04:10:55;12.30;;;11.70;;
727;SDS011;347;48.780;9.158;2022-09-19T04:13:21;13.00;;;12.20;;
727;SDS011;347;48.780;9.158;2022-09-19T04:15:47;13.27;;;12.57;;
727;SDS011;347;48.780;9.158;2022-09-19T04:18:14;12.77;;;11.90;;
727;SDS011;347;48.780;9.158;2022-09-19T04:20:40;12.23;;;11.60;;
727;SDS011;347;48.780;9.158;2022-09-19T04:23:06;12.83;;;12.33;;
727;SDS011;347;48.780;9.158;2022-09-19T04:25:32;12.83;;;12.23;;
727;SDS011;347;48.780;9.158;2022-09-19T04:28:04;13.63;;;13.00;;
727;SDS011;347;48.780;9.158;2022-09-19T04:30:32;13.23;;;12.63;;
727;SDS011;347;48.780;9.158;2022-09-19T04:33:02;12.20;;;11.70;;
727;SDS011;347;48.780;9.158;2022-09-19T04:35:30;13.40;;;12.63;;
727;SDS011;347;48.780;9.158;2022-09-19T04:38:00;12.43;;;11.93;;
727;SDS011;347;48.780;9.158;2022-09-19T04:40:29;13.00;;;12.40;;
727;SDS011;347;48.780;9.158;2022-09-19T04:42:55;13.10;;;12.60;;
727;SDS011;347;48.780;9.158;2022-09-19T04:45:22;13.60;;;12.83;;
727;SDS011;347;48.780;9.158;2022-09-19T04:47:48;13.03;;;12.43;;
727;SDS011;347;48.780;9.158;2022-09-19T04:50:14;12.77;;;12.27;;
727;SDS011;347;48.780;9.158;2022-09-19T04:52:40;13.33;;;12.73;;
727;SDS011;347;48.780;9.158;2022-09-19T04:55:07;12.43;;;11.83;;
727;SDS011;347;48.780;9.158;2022-09-19T04:57:33;12.00;;;11.53;;
727;SDS011;347;48.780;9.158;2022-09-19T04:59:59;12.00;;;11.50;;
727;SDS011;347;48.780;9.158;2022-09-19T05:02:25;12.53;;;12.00;;
727;SDS011;347;48.780;9.158;2022-09-19T05:04:53;13.17;;;12.47;;
727;SDS011;347;48.780;9.158;2022-09-19T05:07:20;13.83;;;13.23;;
727;SDS011;347;48.780;9.158;2022-09-19T05:09:52;13.30;;;12.77;;
727;SDS011;347;48.780;9.158;2022-09-19T05:12:17;14.67;;;13.97;;
727;SDS011;347;48.780;9.158;2022-09-19T05:14:43;13.30;;;12.50;;
727;SDS011;347;48.780;9.158;2022-09-19T05:17:12;13.00;;;12.50;;
727;SDS011;347;48.780;9.158;2022-09-19T05:19:37;13.63;;;13.00;;
727;SDS011;347;48.780;9.158;2022-09-19T05:22:03;13.40;;;12.70;;
727;SDS011;347;48.780;9.158;2022-09-19T05:24:29;14.70;;;13.63;;
727;SDS011;347;48.780;9.158;2022-09-19T05:26:54;13.70;;;13.00;;
727;SDS011;347;48.780;9.158;2022-09-19T05:29:21;14.00;;;13.00;;
727;SDS011;347;48.780;9.158;2022-09-19T05:31:47;12.80;;;12.20;;
727;SDS011;347;48.780;9.158;2022-09-19T05:34:13;14.13;;;13.33;;
727;SDS011;347;48.780;9.158;2022-09-19T05:36:39;14.33;;;13.27;;
727;SDS011;347;48.780;9.158;2022-09-19T05:39:05;14.00;;;13.23;;
727;SDS011;347;48.780;9.158;2022-09-19T05:41:32;15.13;;;14.10;;
727;SDS011;347;48.780;9.158;2022-09-19T05:43:58;14.23;;;13.53;;
727;SDS011;347;48.780;9.158;2022-09-19T05:46:23;13.93;;;13.20;;
727;SDS011;347;48.780;9.158;2022-09-19T05:48:49;14.03;;;13.23;;
727;SDS011;347;48.780;9.158;2022-09-19T05:51:15;12.47;;;11.97;;
727;SDS011;347;48.780;9.158;2022-09-19T05:53:41;13.57;;;12.53;;
727;SDS011;347;48.780;9.158;2022-09-19T05:56:20;13.97;;;13.27;;
727;SDS011;347;48.780;9.158;2022-09-19T05:58:46;15.20;;;14.20;;
727;SDS011;347;48.780;9.158;2022-09-19T06:01:12;13.40;;;12.73;;
727;SDS011;347;48.780;9.158;2022-09-19T06:03:39;12.97;;;12.37;;
727;SDS011;347;48.780;9.158;2022-09-19T06:06:09;14.27;;;13.17;;
727;SDS011;347;48.780;9.158;2022-09-19T06:08:43;14.00;;;13.03;;
727;SDS011;347;48.780;9.158;2022-09-19T06:11:10;14.20;;;13.50;;
727;SDS011;347;48.780;9.158;2022-09-19T06:13:36;12.90;;;12.10;;
727;SDS011;347;48.780;9.158;2022-09-19T06:16:20;14.40;;;13.40;;
727;SDS011;347;48.780;9.158;2022-09-19T06:18:46;14.23;;;13.50;;
727;SDS011;347;48.780;9.158;2022-09-19T06:21:12;14.00;;;13.40;;
727;SDS011;347;48.780;9.158;2022-09-19T06:23:39;14.17;;;13.47;;
727;SDS011;347;48.780;9.158;2022-09-19T06:26:05;14.33;;;13.63;;
727;SDS011;347;48.780;9.158;2022-09-19T06:28:31;13.67;;;12.87;;
727;SDS011;347;48.780;9.158;2022-09-19T06:31:00;13.80;;;12.97;;
727;SDS011;347;48.780;9.158;2022-09-19T06:33:30;17.40;;;16.00;;
727;SDS011;347;48.780;9.158;2022-09-19T06:35:56;13.23;;;12.60;;
727;SDS011;347;48.780;9.158;2022-09-19T06:38:26;12.83;;;12.20;;
727;SDS011;347;48.780;9.158;2022-09-19T06:40:52;14.73;;;13.80;;
727;SDS011;347;48.780;9.158;2022-09-19T06:43:19;14.73;;;13.63;;
727;SDS011;347;48.780;9.158;2022-09-19T06:45:44;13.93;;;13.13;;
727;SDS011;347;48.780;9.158;2022-09-19T06:48:12;13.53;;;12.73;;
727;SDS011;347;48.780;9.158;2022-09-19T06:50:38;13.67;;;12.90;;
727;SDS011;347;48.780;9.158;2022-09-19T06:53:04;13.63;;;12.80;;
727;SDS011;347;48.780;9.158;2022-09-19T06:55:29;12.93;;;12.30;;
727;SDS011;347;48.780;9.158;2022-09-19T06:57:56;13.47;;;12.60;;
727;SDS011;347;48.780;9.158;2022-09-19T07:00:24;13.30;;;12.43;;
727;SDS011;347;48.780;9.158;2022-09-19T07:02:52;12.77;;;12.07;;
727;SDS011;347;48.780;9.158;2022-09-19T07:05:25;13.00;;;11.80;;
727;SDS011;347;48.780;9.158;2022-09-19T07:07:52;13.83;;;12.97;;
727;SDS011;347;48.780;9.158;2022-09-19T07:10:18;12.90;;;12.10;;
727;SDS011;347;48.780;9.158;2022-09-19T07:12:55;13.60;;;12.80;;
727;SDS011;347;48.780;9.158;2022-09-19T07:15:22;13.60;;;12.80;;
727;SDS011;347;48.780;9.158;2022-09-19T07:17:48;13.57;;;12.87;;
727;SDS011;347;48.780;9.158;2022-09-19T07:20:14;13.80;;;13.10;;
727;SDS011;347;48.780;9.158;2022-09-19T07:22:40;14.50;;;13.60;;
727;SDS011;347;48.780;9.158;2022-09-19T07:25:06;14.63;;;13.73;;
727;SDS011;347;48.780;9.158;2022-09-19T07:27:32;14.30;;;13.33;;
727;SDS011;347;48.780;9.158;2022-09-19T07:29:59;12.90;;;12.30;;
727;SDS011;347;48.780;9.158;2022-09-19T07:32:24;13.67;;;12.80;;
727;SDS011;347;48.780;9.158;2022-09-19T07:34:51;13.60;;;12.60;;
727;SDS011;347;48.780;9.158;2022-09-19T07:37:17;13.33;;;12.30;;
727;SDS011;347;48.780;9.158;2022-09-19T07:39:42;11.97;;;11.43;;
727;SDS011;347;48.780;9.158;2022-09-19T07:42:08;13.57;;;12.87;;
727;SDS011;347;48.780;9.158;2022-09-19T07:44:34;12.97;;;12.00;;
727;SDS011;347;48.780;9.158;2022-09-19T07:47:00;14.17;;;13.30;;
727;SDS011;347;48.780;9.158;2022-09-19T07:49:44;12.30;;;11.70;;
727;SDS011;347;48.780;9.158;2022-09-19T07:52:10;13.00;;;12.13;;
727;SDS011;347;48.780;9.158;2022-09-19T07:54:35;12.67;;;11.70;;
727;SDS011;347;48.780;9.158;2022-09-19T07:57:01;12.83;;;12.17;;
727;SDS011;347;48.780;9.158;2022-09-19T07:59:26;12.13;;;11.53;;
727;SDS011;347;48.780;9.158;2022-09-19T08:01:52;11.90;;;11.10;;
727;SDS011;347;48.780;9.158;2022-09-19T08:04:18;11.33;;;10.73;;
727;SDS011;347;48.780;9.158;2022-09-19T08:06:43;11.60;;;11.10;;
727;SDS011;347;48.780;9.158;2022-09-19T08:09:09;11.33;;;10.83;;
727;SDS011;347;48.780;9.158;2022-09-19T08:11:35;12.53;;;11.67;;
727;SDS011;347;48.780;9.158;2022-09-19T08:14:01;15.23;;;14.03;;
727;SDS011;347;48.780;9.158;2022-09-19T08:16:27;13.27;;;12.40;;
727;SDS011;347;48.780;9.158;2022-09-19T08:18:53;12.53;;;11.93;;
727;SDS011;347;48.780;9.158;2022-09-19T08:21:18;12.93;;;12.20;;
727;SDS011;347;48.780;9.158;2022-09-19T08:23:45;12.53;;;11.73;;
727;SDS011;347;48.780;9.158;2022-09-19T08:26:11;12.47;;;11.60;;
727;SDS011;347;48.780;9.158;2022-09-19T08:28:36;11.53;;;10.80;;
727;SDS011;347;48.780;9.158;2022-09-19T08:31:02;12.57;;;11.60;;
727;SDS011;347;48.780;9.158;2022-09-19T08:33:28;12.60;;;11.80;;
727;SDS011;347;48.780;9.158;2022-09-19T08:35:56;12.17;;;11.43;;
727;SDS011;347;48.780;9.158;2022-09-19T08:38:23;13.93;;;12.90;;
727;SDS011;347;48.780;9.158;2022-09-19T08:46:19;12.30;;;11.63;;
727;SDS011;347;48.780;9.158;2022-09-19T08:48:58;13.07;;;12.10;;
727;SDS011;347;48.780;9.158;2022-09-19T08:52:00;12.00;;;11.27;;
727;SDS011;347;48.780;9.158;2022-09-19T09:00:13;12.77;;;11.87;;
727;SDS011;347;48.780;9.158;2022-09-19T09:05:26;12.50;;;11.43;;
727;SDS011;347;48.780;9.158;2022-09-19T09:11:01;11.20;;;10.20;;
727;SDS011;347;48.780;9.158;2022-09-19T09:24:56;11.03;;;10.23;;
727;SDS011;347;48.780;9.158;2022-09-19T09:27:33;11.23;;;10.57;;
727;SDS011;347;48.780;9.158;2022-09-19T09:30:04;11.67;;;10.90;;
727;SDS011;347;48.780;9.158;2022-09-19T09:32:40;11.03;;;10.63;;
727;SDS011;347;48.780;9.158;2022-09-19T09:37:55;12.70;;;12.10;;
727;SDS011;347;48.780;9.158;2022-09-19T09:40:48;12.93;;;12.23;;
727;SDS011;347;48.780;9.158;2022-09-19T09:46:23;12.93;;;11.80;;
727;SDS011;347;48.780;9.158;2022-09-19T09:49:23;14.80;;;11.53;;
727;SDS011;347;48.780;9.158;2022-09-19T09:58:01;10.60;;;10.30;;
727;SDS011;347;48.780;9.158;2022-09-19T10:00:39;11.67;;;11.20;;
727;SDS011;347;48.780;9.158;2022-09-19T10:12:02;12.73;;;11.97;;
727;SDS011;347;48.780;9.158;2022-09-19T10:14:39;11.80;;;11.00;;
727;SDS011;347;48.780;9.158;2022-09-19T10:17:07;11.60;;;11.07;;
727;SDS011;347;48.780;9.158;2022-09-19T10:19:43;11.60;;;11.10;;
727;SDS011;347;48.780;9.158;2022-09-19T10:22:16;11.03;;;10.37;;
727;SDS011;347;48.780;9.158;2022-09-19T10:32:30;12.07;;;11.47;;
727;SDS011;347;48.780;9.158;2022-09-19T10:38:09;11.27;;;10.57;;
727;SDS011;347;48.780;9.158;2022-09-19T10:40:39;11.83;;;11.20;;
727;SDS011;347;48.780;9.158;2022-09-19T10:43:23;12.40;;;11.70;;
727;SDS011;347;48.780;9.158;2022-09-19T10:45:55;11.20;;;10.60;;
727;SDS011;347;48.780;9.158;2022-09-19T10:48:25;11.57;;;11.07;;
727;SDS011;347;48.780;9.158;2022-09-19T10:50:54;11.80;;;11.20;;
727;SDS011;347;48.780;9.158;2022-09-19T10:53:21;11.50;;;11.00;;
727;SDS011;347;48.780;9.158;2022-09-19T10:55:52;12.40;;;11.70;;
727;SDS011;347;48.780;9.158;2022-09-19T10:58:24;11.50;;;11.10;;
727;SDS011;347;48.780;9.158;2022-09-19T11:03:29;11.03;;;10.60;;
727;SDS011;347;48.780;9.158;2022-09-19T11:06:10;11.87;;;11.30;;
727;SDS011;347;48.780;9.158;2022-09-19T11:08:42;12.33;;;11.83;;
727;SDS011;347;48.780;9.158;2022-09-19T11:11:26;12.47;;;11.83;;
727;SDS011;347;48.780;9.158;2022-09-19T11:14:06;21.03;;;19.53;;
727;SDS011;347;48.780;9.158;2022-09-19T11:16:38;11.17;;;10.77;;
727;SDS011;347;48.780;9.158;2022-09-19T11:19:24;11.60;;;10.70;;
727;SDS011;347;48.780;9.158;2022-09-19T11:32:52;10.70;;;10.20;;
727;SDS011;347;48.780;9.158;2022-09-19T11:35:28;10.00;;;9.70;;
727;SDS011;347;48.780;9.158;2022-09-19T11:41:03;10.73;;;10.33;;
727;SDS011;347;48.780;9.158;2022-09-19T11:43:35;11.33;;;10.90;;
727;SDS011;347;48.780;9.158;2022-09-19T12:00:58;11.33;;;10.93;;
727;SDS011;347;48.780;9.158;2022-09-19T12:11:41;11.83;;;11.43;;
727;SDS011;347;48.780;9.158;2022-09-19T12:14:17;11.97;;;11.57;;
727;SDS011;347;48.780;9.158;2022-09-19T12:16:51;11.47;;;10.97;;
727;SDS011;347;48.780;9.158;2022-09-19T12:19:29;11.80;;;11.40;;
727;SDS011;347;48.780;9.158;2022-09-19T12:22:04;12.77;;;11.87;;
727;SDS011;347;48.780;9.158;2022-09-19T12:24:38;12.67;;;12.17;;
727;SDS011;347;48.780;9.158;2022-09-19T12:27:23;11.70;;;11.30;;
727;SDS011;347;48.780;9.158;2022-09-19T12:30:01;10.93;;;10.63;;
727;SDS011;347;48.780;9.158;2022-09-19T12:32:46;11.33;;;10.93;;
727;SDS011;347;48.780;9.158;2022-09-19T12:35:36;11.40;;;10.90;;
727;SDS011;347;48.780;9.158;2022-09-19T12:41:03;12.50;;;12.00;;
727;SDS011;347;48.780;9.158;2022-09-19T12:43:55;11.47;;;10.97;;
727;SDS011;347;48.780;9.158;2022-09-19T12:49:00;11.40;;;10.90;;
727;SDS011;347;48.780;9.158;2022-09-19T12:54:48;11.93;;;11.33;;
727;SDS011;347;48.780;9.158;2022-09-19T13:00:00;12.23;;;11.43;;
727;SDS011;347;48.780;9.158;2022-09-19T13:17:55;17.17;;;14.90;;
727;SDS011;347;48.780;9.158;2022-09-19T13:20:42;14.60;;;13.37;;
727;SDS011;347;48.780;9.158;2022-09-19T13:23:29;15.20;;;14.00;;
727;SDS011;347;48.780;9.158;2022-09-19T13:29:06;12.73;;;12.07;;
727;SDS011;347;48.780;9.158;2022-09-19T13:48:35;10.87;;;10.37;;
727;SDS011;347;48.780;9.158;2022-09-19T13:57:10;11.53;;;11.13;;
727;SDS011;347;48.780;9.158;2022-09-19T13:59:47;11.47;;;10.97;;
727;SDS011;347;48.780;9.158;2022-09-19T14:07:44;11.40;;;11.03;;
727;SDS011;347;48.780;9.158;2022-09-19T14:10:46;11.77;;;11.27;;
727;SDS011;347;48.780;9.158;2022-09-19T14:24:05;11.77;;;11.37;;
727;SDS011;347;48.780;9.158;2022-09-19T14:29:49;11.17;;;10.57;;
727;SDS011;347;48.780;9.158;2022-09-19T14:32:34;10.87;;;10.57;;
727;SDS011;347;48.780;9.158;2022-09-19T14:43:30;11.07;;;10.67;;
727;SDS011;347;48.780;9.158;2022-09-19T14:49:08;11.37;;;11.07;;
727;SDS011;347;48.780;9.158;2022-09-19T14:54:42;10.60;;;10.30;;
727;SDS011;347;48.780;9.158;2022-09-19T14:57:17;11.60;;;11.20;;
727;SDS011;347;48.780;9.158;2022-09-19T14:59:45;10.70;;;10.27;;
727;SDS011;347;48.780;9.158;2022-09-19T15:05:15;11.40;;;11.00;;
727;SDS011;347;48.780;9.158;2022-09-19T15:07:41;10.53;;;10.23;;
727;SDS011;347;48.780;9.158;2022-09-19T15:13:18;10.73;;;10.43;;
727;SDS011;347;48.780;9.158;2022-09-19T15:15:45;11.47;;;11.07;;
727;SDS011;347;48.780;9.158;2022-09-19T15:18:24;10.90;;;10.60;;
727;SDS011;347;48.780;9.158;2022-09-19T15:20:57;11.53;;;11.03;;
727;SDS011;347;48.780;9.158;2022-09-19T15:23:27;12.60;;;11.67;;
727;SDS011;347;48.780;9.158;2022-09-19T15:25:58;11.50;;;11.20;;
727;SDS011;347;48.780;9.158;2022-09-19T15:28:34;11.03;;;10.63;;
727;SDS011;347;48.780;9.158;2022-09-19T15:31:16;11.90;;;11.40;;
727;SDS011;347;48.780;9.158;2022-09-19T15:33:46;12.27;;;11.67;;
727;SDS011;347;48.780;9.158;2022-09-19T15:36:22;12.80;;;12.00;;
727;SDS011;347;48.780;9.158;2022-09-19T15:38:48;12.20;;;11.70;;
727;SDS011;347;48.780;9.158;2022-09-19T15:41:19;12.63;;;12.13;;
727;SDS011;347;48.780;9.158;2022-09-19T15:43:51;13.07;;;12.57;;
727;SDS011;347;48.780;9.158;2022-09-19T15:48:56;12.17;;;11.77;;
727;SDS011;347;48.780;9.158;2022-09-19T15:51:29;12.07;;;11.57;;
727;SDS011;347;48.780;9.158;2022-09-19T15:54:00;12.00;;;11.60;;
727;SDS011;347;48.780;9.158;2022-09-19T15:56:28;12.37;;;11.87;;
727;SDS011;347;48.780;9.158;2022-09-19T15:59:12;12.23;;;11.63;;
727;SDS011;347;48.780;9.158;2022-09-19T16:01:52;12.77;;;12.17;;
727;SDS011;347;48.780;9.158;2022-09-19T16:04:25;12.23;;;11.83;;
727;SDS011;347;48.780;9.158;2022-09-19T16:09:41;11.07;;;10.47;;
727;SDS011;347;48.780;9.158;2022-09-19T16:14:45;12.00;;;11.50;;
727;SDS011;347;48.780;9.158;2022-09-19T16:17:18;12.10;;;11.60;;
727;SDS011;347;48.780;9.158;2022-09-19T16:19:47;11.90;;;11.50;;
727;SDS011;347;48.780;9.158;2022-09-19T16:22:15;11.97;;;11.47;;
727;SDS011;347;48.780;9.158;2022-09-19T16:24:57;11.67;;;11.27;;
727;SDS011;347;48.780;9.158;2022-09-19T16:27:28;11.70;;;11.20;;
727;SDS011;347;48.780;9.158;2022-09-19T16:29:56;10.80;;;10.40;;
727;SDS011;347;48.780;9.158;2022-09-19T16:32:25;11.27;;;10.77;;
727;SDS011;347;48.780;9.158;2022-09-19T16:34:53;11.57;;;11.07;;
727;SDS011;347;48.780;9.158;2022-09-19T16:39:50;11.53;;;11.13;;
727;SDS011;347;48.780;9.158;2022-09-19T16:47:25;11.57;;;11.27;;
727;SDS011;347;48.780;9.158;2022-09-19T16:49:52;11.27;;;10.97;;
727;SDS011;347;48.780;9.158;2022-09-19T16:52:33;12.80;;;12.20;;
727;SDS011;347;48.780;9.158;2022-09-19T16:55:01;12.80;;;12.30;;
727;SDS011;347;48.780;9.158;2022-09-19T16:57:30;11.73;;;11.10;;
727;SDS011;347;48.780;9.158;2022-09-19T16:59:56;16.80;;;15.60;;
727;SDS011;347;48.780;9.158;2022-09-19T17:04:47;12.83;;;12.30;;
727;SDS011;347;48.780;9.158;2022-09-19T17:07:13;13.37;;;12.87;;
727;SDS011;347;48.780;9.158;2022-09-19T17:09:42;12.27;;;11.67;;
727;SDS011;347;48.780;9.158;2022-09-19T17:12:08;13.23;;;12.60;;
727;SDS011;347;48.780;9.158;2022-09-19T17:14:36;11.73;;;11.23;;
727;SDS011;347;48.780;9.158;2022-09-19T17:17:01;12.00;;;11.47;;
727;SDS011;347;48.780;9.158;2022-09-19T17:19:28;11.50;;;11.00;;
727;SDS011;347;48.780;9.158;2022-09-19T17:21:54;12.73;;;12.00;;
727;SDS011;347;48.780;9.158;2022-09-19T17:24:19;12.33;;;11.80;;
727;SDS011;347;48.780;9.158;2022-09-19T17:26:45;13.10;;;12.60;;
727;SDS011;347;48.780;9.158;2022-09-19T17:29:11;12.87;;;12.20;;
727;SDS011;347;48.780;9.158;2022-09-19T17:31:36;12.80;;;12.30;;
727;SDS011;347;48.780;9.158;2022-09-19T17:34:04;13.40;;;12.70;;
727;SDS011;347;48.780;9.158;2022-09-19T17:36:31;11.77;;;11.23;;
727;SDS011;347;48.780;9.158;2022-09-19T17:38:57;12.40;;;11.80;;
727;SDS011;347;48.780;9.158;2022-09-19T17:41:23;12.10;;;11.70;;
727;SDS011;347;48.780;9.158;2022-09-19T17:43:48;11.40;;;10.90;;
727;SDS011;347;48.780;9.158;2022-09-19T17:46:14;11.97;;;11.57;;
727;SDS011;347;48.780;9.158;2022-09-19T17:48:40;12.20;;;11.70;;
727;SDS011;347;48.780;9.158;2022-09-19T17:51:11;13.43;;;12.83;;
727;SDS011;347;48.780;9.158;2022-09-19T17:53:40;12.20;;;11.70;;
727;SDS011;347;48.780;9.158;2022-09-19T17:56:10;12.63;;;12.03;;
727;SDS011;347;48.780;9.158;2022-09-19T17:58:40;13.73;;;12.20;;
727;SDS011;347;48.780;9.158;2022-09-19T18:01:06;13.37;;;12.40;;
727;SDS011;347;48.780;9.158;2022-09-19T18:03:51;12.73;;;11.70;;
727;SDS011;347;48.780;9.158;2022-09-19T18:06:16;12.70;;;12.10;;
727;SDS011;347;48.780;9.158;2022-09-19T18:08:43;12.77;;;12.07;;
727;SDS011;347;48.780;9.158;2022-09-19T18:11:09;13.03;;;12.37;;
727;SDS011;347;48.780;9.158;2022-09-19T18:13:35;12.80;;;12.10;;
727;SDS011;347;48.780;9.158;2022-09-19T18:16:08;11.73;;;11.30;;
727;SDS011;347;48.780;9.158;2022-09-19T18:18:39;12.77;;;11.97;;
727;SDS011;347;48.780;9.158;2022-09-19T18:21:06;11.93;;;11.47;;
727;SDS011;347;48.780;9.158;2022-09-19T18:23:32;11.70;;;11.20;;
727;SDS011;347;48.780;9.158;2022-09-19T18:26:00;12.10;;;11.60;;
727;SDS011;347;48.780;9.158;2022-09-19T18:28:28;12.00;;;11.40;;
727;SDS011;347;48.780;9.158;2022-09-19T18:30:55;12.30;;;11.77;;
727;SDS011;347;48.780;9.158;2022-09-19T18:33:22;11.80;;;11.30;;
727;SDS011;347;48.780;9.158;2022-09-19T18:35:49;11.23;;;10.83;;
727;SDS011;347;48.780;9.158;2022-09-19T18:38:16;11.87;;;11.43;;
727;SDS011;347;48.780;9.158;2022-09-19T18:40:42;12.07;;;11.53;;
727;SDS011;347;48.780;9.158;2022-09-19T18:43:08;11.60;;;11.20;;
727;SDS011;347;48.780;9.158;2022-09-19T18:45:34;10.67;;;10.27;;
727;SDS011;347;48.780;9.158;2022-09-19T18:48:00;11.50;;;11.00;;
727;SDS011;347;48.780;9.158;2022-09-19T18:50:26;12.30;;;11.70;;
727;SDS011;347;48.780;9.158;2022-09-19T18:52:52;12.47;;;11.93;;
727;SDS011;347;48.780;9.158;2022-09-19T18:55:18;12.80;;;12.07;;
727;SDS011;347;48.780;9.158;2022-09-19T18:57:44;12.50;;;11.80;;
727;SDS011;347;48.780;9.158;2022-09-19T19:00:10;11.83;;;11.43;;
727;SDS011;347;48.780;9.158;2022-09-19T19:02:36;12.43;;;11.83;;
727;SDS011;347;48.780;9.158;2022-09-19T19:05:03;12.70;;;12.13;;
727;SDS011;347;48.780;9.158;2022-09-19T19:07:29;12.93;;;12.30;;
727;SDS011;347;48.780;9.158;2022-09-19T19:09:55;13.00;;;12.30;;
727;SDS011;347;48.780;9.158;2022-09-19T19:12:21;12.53;;;11.93;;
727;SDS011;347;48.780;9.158;2022-09-19T19:14:47;11.90;;;11.23;;
727;SDS011;347;48.780;9.158;2022-09-19T19:17:21;11.87;;;11.27;;
727;SDS011;347;48.780;9.158;2022-09-19T19:19:47;13.83;;;12.50;;
727;SDS011;347;48.780;9.158;2022-09-19T19:22:13;11.93;;;11.33;;
727;SDS011;347;48.780;9.158;2022-09-19T19:24:38;12.97;;;12.17;;
727;SDS011;347;48.780;9.158;2022-09-19T19:27:04;12.70;;;12.20;;
727;SDS011;347;48.780;9.158;2022-09-19T19:29:30;12.50;;;11.90;;
727;SDS011;347;48.780;9.158;2022-09-19T19:31:56;12.53;;;11.93;;
727;SDS011;347;48.780;9.158;2022-09-19T19:34:22;12.67;;;12.17;;
727;SDS011;347;48.780;9.158;2022-09-19T19:36:47;12.37;;;11.87;;
727;SDS011;347;48.780;9.158;2022-09-19T19:39:13;12.47;;;11.97;;
727;SDS011;347;48.780;9.158;2022-09-19T19:41:39;12.20;;;11.80;;
727;SDS011;347;48.780;9.158;2022-09-19T19:44:05;12.77;;;12.17;;
727;SDS011;347;48.780;9.158;2022-09-19T19:46:32;14.17;;;13.00;;
727;SDS011;347;48.780;9.158;2022-09-19T19:49:00;12.80;;;12.30;;